Time;durP1;ratioP1;P1;durP2;ratioP2;P2;SDS_P1;SDS_P2;PMS_P1;PMS_P2;Temp;Humidity;BMP_temperature;BMP_pressure;BME280_temperature;BME280_humidity;BME280_pressure;Samples;Min_cycle;Max_cycle;Signal;HPM_P1;HPM_P2
2023/03/16 00:01:18;;;;;;;22.88;11.15;;;22.90;44.30;;;;;;6198398;28;83252;-61
2023/03/16 00:04:18;;;;;;;22.10;11.70;;;22.90;44.30;;;;;;6198464;28;82995;-61
2023/03/16 00:07:20;;;;;;;20.08;10.10;;;22.90;44.60;;;;;;6199232;28;85466;-62
2023/03/16 00:10:25;;;;;;;17.35;10.07;;;22.90;44.60;;;;;;6199657;28;83532;-61
2023/03/16 00:13:26;;;;;;;16.15;9.18;;;22.90;44.50;;;;;;6188124;28;82983;-60
2023/03/16 00:16:27;;;;;;;16.48;9.50;;;22.90;45.10;;;;;;6201104;28;83589;-61
2023/03/16 00:19:27;;;;;;;17.48;9.50;;;22.80;44.20;;;;;;6196350;28;80486;-61
2023/03/16 00:22:28;;;;;;;17.15;9.63;;;22.80;44.10;;;;;;6200591;28;81727;-66
2023/03/16 00:25:28;;;;;;;17.35;9.23;;;22.80;44.00;;;;;;6201449;28;80443;-65
2023/03/16 00:28:33;;;;;;;16.40;9.10;;;22.80;44.30;;;;;;6200879;28;80329;-63
2023/03/16 00:31:34;;;;;;;16.00;8.95;;;22.90;44.30;;;;;;6197255;28;83184;-64
2023/03/16 00:34:34;;;;;;;17.77;9.00;;;22.80;44.00;;;;;;6201179;28;81044;-64
2023/03/16 00:37:36;;;;;;;19.83;8.82;;;22.80;44.00;;;;;;6198733;28;80643;-64
2023/03/16 00:40:36;;;;;;;17.17;8.90;;;22.80;44.00;;;;;;6100879;28;83799;-64
2023/03/16 00:43:40;;;;;;;16.05;8.95;;;22.80;44.10;;;;;;6100801;28;80303;-65
2023/03/16 00:46:41;;;;;;;17.52;8.18;;;22.80;43.70;;;;;;6099534;28;81816;-70
2023/03/16 00:49:43;;;;;;;15.75;8.25;;;22.80;44.10;;;;;;6098787;28;81533;-70
2023/03/16 00:52:44;;;;;;;14.52;8.18;;;22.80;44.20;;;;;;6098383;28;82974;-71
2023/03/16 00:55:44;;;;;;;14.95;8.20;;;22.80;44.20;;;;;;6102165;28;82665;-71
2023/03/16 00:58:45;;;;;;;15.00;8.07;;;22.80;43.70;;;;;;6100459;28;80300;-59
2023/03/16 01:01:45;;;;;;;15.13;8.13;;;22.80;43.50;;;;;;6100196;28;80917;-59
2023/03/16 01:04:46;;;;;;;14.88;7.70;;;22.80;43.60;;;;;;6100189;28;80366;-59
2023/03/16 01:07:46;;;;;;;16.77;8.45;;;22.80;43.50;;;;;;6099645;28;80559;-59
2023/03/16 01:10:47;;;;;;;16.58;8.63;;;22.80;43.40;;;;;;6097919;28;83576;-59
2023/03/16 01:13:47;;;;;;;15.00;7.88;;;22.80;43.20;;;;;;6099561;28;81894;-59
2023/03/16 01:16:48;;;;;;;15.70;8.73;;;22.80;42.90;;;;;;6098625;28;81627;-59
2023/03/16 01:19:50;;;;;;;13.13;7.32;;;22.70;42.60;;;;;;6093598;28;83649;-58
2023/03/16 01:22:50;;;;;;;14.50;7.25;;;22.80;42.70;;;;;;6098514;28;83529;-57
2023/03/16 01:25:54;;;;;;;14.00;7.70;;;22.70;42.70;;;;;;6098485;28;83492;-56
2023/03/16 01:28:55;;;;;;;13.80;7.38;;;22.70;42.60;;;;;;6099819;28;82750;-58
2023/03/16 01:31:56;;;;;;;18.42;8.32;;;22.70;42.70;;;;;;6097088;28;81912;-59
2023/03/16 01:34:57;;;;;;;14.23;7.78;;;22.70;42.60;;;;;;6098188;28;82524;-58
2023/03/16 01:37:57;;;;;;;16.30;8.10;;;22.70;42.70;;;;;;6099537;28;80550;-58
2023/03/16 01:41:00;;;;;;;16.98;8.07;;;22.70;42.70;;;;;;6097199;28;82405;-58
2023/03/16 01:44:00;;;;;;;17.00;8.40;;;22.70;42.40;;;;;;6110974;28;83228;-59
2023/03/16 01:47:02;;;;;;;15.57;7.63;;;22.70;42.30;;;;;;6171845;28;83247;-59
2023/03/16 01:50:03;;;;;;;18.58;7.95;;;22.70;42.30;;;;;;6088541;28;82351;-59
2023/03/16 01:53:06;;;;;;;14.95;7.80;;;22.70;42.30;;;;;;6115232;28;80578;-59
2023/03/16 01:56:07;;;;;;;13.25;6.90;;;22.70;41.90;;;;;;6168647;28;87162;-59
2023/03/16 01:59:07;;;;;;;15.00;7.57;;;22.70;41.90;;;;;;6098603;28;83567;-59
2023/03/16 02:02:08;;;;;;;16.83;7.93;;;22.70;41.90;;;;;;6099132;28;83769;-59
2023/03/16 02:05:08;;;;;;;13.32;6.97;;;22.70;41.50;;;;;;6098376;28;83169;-59
2023/03/16 02:08:11;;;;;;;13.77;6.60;;;22.70;41.90;;;;;;6099844;28;83358;-60
2023/03/16 02:11:11;;;;;;;14.63;7.80;;;22.70;41.80;;;;;;6101627;28;83590;-67
2023/03/16 02:14:23;;;;;;;14.90;7.50;;;22.70;41.90;;;;;;6101165;28;81023;-67
2023/03/16 02:17:24;;;;;;;14.73;7.45;;;22.70;41.90;;;;;;6101990;28;82028;-69
2023/03/16 02:20:28;;;;;;;12.55;6.18;;;22.70;41.80;;;;;;6094133;28;83437;-67
2023/03/16 02:23:28;;;;;;;13.75;7.63;;;22.70;41.80;;;;;;6102486;28;82391;-69
2023/03/16 02:26:29;;;;;;;14.10;6.72;;;22.70;41.80;;;;;;6103290;28;80205;-69
2023/03/16 02:29:30;;;;;;;12.00;6.13;;;22.70;41.90;;;;;;6101190;28;82067;-69
2023/03/16 02:32:31;;;;;;;13.23;6.28;;;22.70;41.90;;;;;;6101254;28;83398;-70
2023/03/16 02:35:31;;;;;;;11.93;6.68;;;22.70;41.90;;;;;;6101942;28;82726;-70
2023/03/16 02:38:32;;;;;;;9.95;5.53;;;22.70;42.00;;;;;;6102407;28;81250;-70
2023/03/16 02:41:34;;;;;;;10.32;5.63;;;22.60;41.90;;;;;;6101026;28;83549;-69
2023/03/16 02:44:34;;;;;;;17.15;6.85;;;22.70;42.00;;;;;;6100289;28;81735;-71
2023/03/16 02:47:37;;;;;;;9.35;5.38;;;22.70;42.00;;;;;;6100836;28;82379;-60
2023/03/16 02:50:37;;;;;;;9.75;5.47;;;22.70;41.90;;;;;;6099196;27;80596;-59
2023/03/16 02:53:40;;;;;;;11.65;5.65;;;22.70;41.80;;;;;;6076621;28;83217;-60
2023/03/16 02:56:41;;;;;;;13.88;7.43;;;22.70;41.80;;;;;;6077012;28;82223;-60
2023/03/16 02:59:43;;;;;;;13.60;6.57;;;22.70;41.70;;;;;;6084542;28;82639;-58
2023/03/16 03:02:44;;;;;;;13.60;6.40;;;22.70;41.70;;;;;;6101357;28;80668;-60
2023/03/16 03:05:46;;;;;;;15.82;7.25;;;22.70;41.60;;;;;;6094980;28;80413;-59
2023/03/16 03:08:46;;;;;;;12.55;6.90;;;22.70;41.50;;;;;;6100096;28;80325;-59
2023/03/16 03:11:47;;;;;;;16.20;7.03;;;22.60;41.30;;;;;;6098735;28;82043;-59
2023/03/16 03:14:47;;;;;;;13.77;7.53;;;22.60;41.20;;;;;;6100677;28;80569;-59
2023/03/16 03:17:51;;;;;;;14.10;7.18;;;22.60;41.20;;;;;;6099007;28;81726;-59
2023/03/16 03:20:52;;;;;;;14.35;7.82;;;22.70;41.20;;;;;;6096216;28;83191;-61
2023/03/16 03:23:52;;;;;;;15.93;8.43;;;22.70;41.20;;;;;;6100054;28;80523;-59
2023/03/16 03:26:53;;;;;;;15.98;8.73;;;22.70;41.50;;;;;;6101128;28;80294;-59
2023/03/16 03:29:54;;;;;;;16.63;8.55;;;22.60;41.10;;;;;;6100630;28;81668;-59
2023/03/16 03:32:55;;;;;;;19.77;9.30;;;22.70;41.20;;;;;;6100746;28;80180;-59
2023/03/16 03:35:55;;;;;;;18.85;9.60;;;22.70;40.90;;;;;;6100228;28;80473;-59
2023/03/16 03:38:57;;;;;;;18.08;9.38;;;22.60;40.80;;;;;;6099674;28;82413;-59
2023/03/16 03:41:57;;;;;;;18.17;9.57;;;22.60;40.70;;;;;;6100267;28;80524;-72
2023/03/16 03:44:58;;;;;;;18.70;9.07;;;22.60;40.70;;;;;;6076404;28;82313;-73
2023/03/16 03:47:59;;;;;;;21.58;10.68;;;22.70;40.80;;;;;;6100239;28;82744;-73
2023/03/16 03:51:00;;;;;;;15.95;9.07;;;22.60;40.70;;;;;;6098633;28;83548;-72
2023/03/16 03:54:15;;;;;;;18.27;10.10;;;22.60;40.60;;;;;;6090688;28;83219;-71
2023/03/16 03:57:16;;;;;;;18.27;9.95;;;22.70;40.40;;;;;;6097921;28;83155;-71
2023/03/16 04:00:19;;;;;;;19.55;10.77;;;22.60;40.40;;;;;;6159093;28;81734;-61
2023/03/16 04:03:20;;;;;;;19.98;10.00;;;22.60;40.30;;;;;;6138078;28;83055;-60
2023/03/16 04:06:21;;;;;;;20.88;10.77;;;22.60;40.20;;;;;;6096330;28;85856;-62
2023/03/16 04:09:22;;;;;;;21.00;10.45;;;22.60;40.30;;;;;;6096381;28;85843;-62
2023/03/16 04:12:23;;;;;;;20.45;10.80;;;22.60;40.20;;;;;;6095452;28;85234;-61
2023/03/16 04:15:24;;;;;;;19.85;10.30;;;22.60;40.30;;;;;;6096286;28;85845;-61
2023/03/16 04:18:39;;;;;;;21.63;11.05;;;22.60;40.10;;;;;;6071199;28;85954;-60
2023/03/16 04:21:41;;;;;;;20.13;11.10;;;22.60;40.00;;;;;;6083996;28;85056;-60
2023/03/16 04:24:42;;;;;;;23.98;11.25;;;22.60;40.10;;;;;;6090105;28;85592;-60
2023/03/16 04:27:43;;;;;;;22.77;11.65;;;22.60;40.00;;;;;;6090496;28;83884;-62
2023/03/16 04:30:44;;;;;;;23.50;11.25;;;22.60;39.90;;;;;;6091317;28;85659;-59
2023/03/16 04:33:53;;;;;;;22.02;11.43;;;22.60;39.70;;;;;;6090620;28;86911;-62
2023/03/16 04:36:55;;;;;;;22.30;12.15;;;22.60;39.80;;;;;;6081280;28;84068;-63
2023/03/16 04:39:56;;;;;;;29.45;12.70;;;22.60;40.00;;;;;;6088072;28;86004;-65
2023/03/16 04:42:56;;;;;;;23.63;12.55;;;22.60;39.80;;;;;;6091205;28;86237;-68
2023/03/16 04:45:57;;;;;;;27.83;13.70;;;22.60;39.90;;;;;;6093180;28;83722;-70
2023/03/16 04:49:01;;;;;;;24.45;12.60;;;22.60;39.90;;;;;;6089771;28;88992;-66
2023/03/16 04:52:03;;;;;;;21.55;12.88;;;22.60;39.70;;;;;;6089039;28;86288;-61
2023/03/16 04:55:04;;;;;;;23.20;12.95;;;22.50;39.40;;;;;;6092661;28;83568;-65
2023/03/16 04:58:06;;;;;;;22.55;12.30;;;22.50;39.90;;;;;;6092702;28;85955;-67
2023/03/16 05:01:10;;;;;;;22.50;11.68;;;22.50;40.50;;;;;;6086963;28;85141;-72
2023/03/16 05:04:11;;;;;;;26.77;12.45;;;22.50;40.50;;;;;;6090660;28;84227;-75
2023/03/16 05:07:12;;;;;;;23.30;12.23;;;22.50;40.30;;;;;;6165027;28;85665;-69
2023/03/16 05:10:17;;;;;;;20.67;12.02;;;22.50;40.10;;;;;;6100204;28;85356;-66
2023/03/16 05:13:18;;;;;;;26.38;11.93;;;22.50;40.30;;;;;;6089268;28;85849;-63
2023/03/16 05:16:22;;;;;;;20.90;12.15;;;22.50;40.80;;;;;;6090290;28;89125;-75
2023/03/16 05:19:23;;;;;;;24.38;11.65;;;22.50;40.60;;;;;;6088812;28;85874;-66
2023/03/16 05:22:24;;;;;;;22.67;12.38;;;22.50;40.90;;;;;;6087443;28;85882;-66
2023/03/16 05:25:43;;;;;;;23.05;12.63;;;22.50;40.20;;;;;;6087320;28;90200;-64
2023/03/16 05:28:45;;;;;;;24.33;12.77;;;22.50;40.20;;;;;;6096801;28;86131;-62
2023/03/16 05:31:48;;;;;;;24.85;12.43;;;22.40;40.20;;;;;;6187456;28;84431;-63
2023/03/16 05:34:52;;;;;;;20.65;11.60;;;22.50;40.10;;;;;;6098364;28;85659;-68
2023/03/16 05:37:54;;;;;;;22.60;11.95;;;22.50;40.30;;;;;;6099555;28;85389;-70
2023/03/16 05:41:00;;;;;;;20.33;10.05;;;22.50;39.80;;;;;;6095891;28;84325;-67
2023/03/16 05:44:17;;;;;;;21.75;12.15;;;22.50;39.90;;;;;;6099051;28;85393;-67
2023/03/16 05:47:38;;;;;;;28.58;12.65;;;22.50;39.40;;;;;;6109904;27;82880;-73
2023/03/16 05:50:41;;;;;;;23.45;12.30;;;22.50;39.30;;;;;;6081210;28;85157;-71
2023/03/16 05:53:45;;;;;;;28.67;12.65;;;22.50;39.30;;;;;;6074461;28;85913;-65
2023/03/16 05:56:54;;;;;;;25.75;12.43;;;22.50;39.60;;;;;;6076679;28;84090;-66
2023/03/16 05:59:55;;;;;;;23.85;12.43;;;22.60;39.10;;;;;;6082811;28;85604;-64
2023/03/16 06:02:56;;;;;;;25.05;11.48;;;22.60;39.50;;;;;;6094260;28;84927;-63
2023/03/16 06:06:02;;;;;;;21.33;11.23;;;22.60;39.60;;;;;;6095835;28;86007;-64
2023/03/16 06:09:12;;;;;;;18.33;10.65;;;22.60;39.30;;;;;;6095279;28;86043;-61
2023/03/16 06:12:12;;;;;;;20.23;10.90;;;22.50;38.90;;;;;;6094683;28;84895;-63
2023/03/16 06:15:14;;;;;;;21.15;11.75;;;22.60;38.80;;;;;;6095069;28;85896;-63
2023/03/16 06:18:14;;;;;;;22.50;12.15;;;22.50;38.60;;;;;;6094035;28;86048;-63
2023/03/16 06:21:16;;;;;;;20.77;11.48;;;22.60;38.50;;;;;;6088016;28;84172;-61
2023/03/16 06:24:17;;;;;;;21.50;10.98;;;22.50;38.40;;;;;;6097392;28;85645;-63
2023/03/16 06:27:19;;;;;;;20.23;10.73;;;22.60;38.40;;;;;;6145598;28;83146;-63
2023/03/16 06:30:33;;;;;;;20.57;11.37;;;22.50;38.30;;;;;;6135073;28;85239;-64
2023/03/16 06:33:34;;;;;;;21.35;10.98;;;22.60;38.40;;;;;;6094863;28;85039;-60
2023/03/16 06:36:37;;;;;;;21.02;10.75;;;22.60;38.40;;;;;;6088860;28;86696;-60
2023/03/16 06:39:38;;;;;;;18.27;10.70;;;22.60;38.30;;;;;;6086806;28;85837;-62
2023/03/16 06:42:39;;;;;;;20.55;10.75;;;22.60;38.40;;;;;;6094313;28;84819;-61
2023/03/16 06:45:43;;;;;;;22.98;13.55;;;22.60;38.10;;;;;;6097595;28;86311;-66
2023/03/16 06:48:45;;;;;;;22.02;13.75;;;22.60;37.60;;;;;;6099948;28;85755;-71
2023/03/16 06:51:46;;;;;;;27.20;14.70;;;22.60;37.40;;;;;;6099616;28;85862;-72
2023/03/16 06:54:47;;;;;;;27.20;15.13;;;22.50;37.40;;;;;;6099055;28;85850;-67
2023/03/16 06:57:49;;;;;;;28.70;14.25;;;22.50;36.80;;;;;;6095296;28;83987;-65
2023/03/16 07:00:52;;;;;;;30.73;14.32;;;22.50;36.40;;;;;;6098774;28;85077;-67
2023/03/16 07:03:53;;;;;;;33.05;16.33;;;22.50;35.90;;;;;;6100450;28;82986;-66
2023/03/16 07:06:59;;;;;;;33.60;15.82;;;22.50;35.20;;;;;;6085206;28;86094;-65
2023/03/16 07:10:01;;;;;;;30.10;15.02;;;22.50;35.00;;;;;;6168593;28;85547;-65
2023/03/16 07:13:01;;;;;;;27.80;15.55;;;22.50;35.10;;;;;;6114876;28;82914;-64
2023/03/16 07:16:03;;;;;;;28.30;14.68;;;22.50;34.70;;;;;;6096744;28;85996;-64
2023/03/16 07:19:04;;;;;;;35.25;15.38;;;22.50;35.20;;;;;;6094076;28;85478;-65
2023/03/16 07:22:06;;;;;;;32.58;16.83;;;22.50;34.60;;;;;;6098945;28;84142;-66
2023/03/16 07:25:11;;;;;;;30.27;16.35;;;22.50;34.60;;;;;;6094477;28;84911;-67
2023/03/16 07:28:15;;;;;;;29.73;15.38;;;22.50;35.30;;;;;;6090309;28;85694;-65
2023/03/16 07:31:17;;;;;;;32.75;16.13;;;22.50;34.90;;;;;;6098698;28;84095;-64
2023/03/16 07:34:18;;;;;;;24.58;14.20;;;22.50;35.00;;;;;;6099526;28;84954;-67
2023/03/16 07:37:24;;;;;;;26.65;16.15;;;22.60;34.70;;;;;;6098584;28;85591;-68
2023/03/16 07:40:25;;;;;;;28.42;14.77;;;22.60;34.60;;;;;;6094663;28;86404;-60
2023/03/16 07:43:30;;;;;;;25.55;13.13;;;22.60;34.70;;;;;;6093538;28;86092;-65
2023/03/16 07:46:31;;;;;;;24.83;13.68;;;22.60;34.90;;;;;;6083249;28;85686;-65
2023/03/16 07:49:32;;;;;;;25.67;12.88;;;22.60;34.40;;;;;;6094836;28;86496;-66
2023/03/16 07:52:34;;;;;;;26.85;12.93;;;22.60;34.20;;;;;;6091689;28;86215;-66
2023/03/16 07:55:35;;;;;;;22.98;12.02;;;22.60;34.10;;;;;;6093905;28;85124;-65
2023/03/16 07:58:36;;;;;;;19.55;11.43;;;22.70;34.00;;;;;;6095183;28;83301;-64
2023/03/16 08:01:37;;;;;;;26.85;10.95;;;22.70;34.10;;;;;;6094084;28;88471;-64
2023/03/16 08:04:41;;;;;;;20.42;11.57;;;22.70;34.30;;;;;;6192749;28;85006;-64
2023/03/16 08:07:41;;;;;;;19.77;11.43;;;22.60;34.30;;;;;;6097104;28;86188;-64
2023/03/16 08:10:51;;;;;;;21.73;10.90;;;22.60;34.40;;;;;;6186179;28;85003;-64
2023/03/16 08:13:55;;;;;;;21.05;10.68;;;22.60;34.40;;;;;;6093085;28;84222;-64
2023/03/16 08:16:57;;;;;;;20.52;10.43;;;22.60;34.40;;;;;;6096105;28;86195;-64
2023/03/16 08:19:59;;;;;;;17.45;9.63;;;22.60;34.30;;;;;;6097144;28;86384;-61
2023/03/16 08:23:00;;;;;;;19.60;9.75;;;22.60;34.30;;;;;;6099923;28;84464;-60
2023/03/16 08:26:08;;;;;;;16.00;8.90;;;22.70;34.20;;;;;;6117548;28;82047;-61
2023/03/16 08:29:09;;;;;;;19.15;9.27;;;22.70;34.20;;;;;;6181339;28;82946;-62
2023/03/16 08:32:11;;;;;;;14.55;8.18;;;22.70;34.00;;;;;;6099158;28;81875;-62
2023/03/16 08:35:16;;;;;;;16.70;8.35;;;22.80;34.00;;;;;;6119971;28;81484;-60
2023/03/16 08:38:19;;;;;;;18.10;9.65;;;22.80;33.90;;;;;;6091684;28;82283;-66
2023/03/16 08:41:20;;;;;;;16.85;9.13;;;22.90;33.80;;;;;;6095044;28;82919;-64
2023/03/16 08:44:23;;;;;;;19.23;9.77;;;22.90;34.00;;;;;;6094472;28;81945;-67
2023/03/16 08:47:24;;;;;;;17.88;9.18;;;22.90;33.90;;;;;;6101265;28;82931;-66
2023/03/16 08:50:26;;;;;;;16.15;8.55;;;23.00;33.90;;;;;;6094712;28;84306;-66
2023/03/16 08:53:27;;;;;;;14.02;8.68;;;23.00;33.80;;;;;;6101633;28;80152;-69
2023/03/16 08:56:29;;;;;;;16.77;8.95;;;23.00;33.50;;;;;;6095920;28;82973;-60
2023/03/16 08:59:30;;;;;;;24.10;10.27;;;23.00;33.80;;;;;;6098908;28;80362;-59
2023/03/16 09:02:30;;;;;;;21.48;10.55;;;23.00;33.90;;;;;;6099421;28;83154;-61
2023/03/16 09:05:31;;;;;;;18.83;10.68;;;23.00;33.70;;;;;;6099121;28;82683;-60
2023/03/16 09:08:32;;;;;;;19.48;9.27;;;23.10;33.60;;;;;;6096191;28;82960;-59
2023/03/16 09:11:33;;;;;;;15.40;8.43;;;23.10;33.40;;;;;;6095241;28;82841;-61
2023/03/16 09:14:36;;;;;;;15.90;8.35;;;23.10;33.10;;;;;;6099015;28;80968;-60
2023/03/16 09:17:36;;;;;;;13.77;7.40;;;23.10;33.00;;;;;;6097649;28;80228;-62
2023/03/16 09:20:37;;;;;;;17.35;7.32;;;23.10;33.00;;;;;;6098806;28;80591;-61
2023/03/16 09:23:37;;;;;;;13.63;6.90;;;23.20;33.00;;;;;;6100340;28;84103;-61
2023/03/16 09:26:38;;;;;;;15.68;7.38;;;23.20;32.80;;;;;;6095172;28;80862;-61
2023/03/16 09:29:39;;;;;;;10.95;6.57;;;23.20;32.80;;;;;;6127965;28;80955;-62
2023/03/16 09:32:40;;;;;;;14.93;7.10;;;23.20;32.70;;;;;;6199193;28;82365;-62
2023/03/16 09:35:42;;;;;;;12.65;6.90;;;23.20;32.70;;;;;;6198686;28;80579;-61
2023/03/16 09:38:43;;;;;;;11.60;6.25;;;23.30;32.60;;;;;;6202498;28;80445;-63
2023/03/16 09:41:43;;;;;;;11.48;6.60;;;23.30;32.50;;;;;;6193345;28;81580;-62
2023/03/16 09:44:44;;;;;;;14.23;6.93;;;23.30;32.20;;;;;;6201667;28;83135;-62
2023/03/16 09:47:44;;;;;;;12.00;5.97;;;23.30;31.90;;;;;;6203197;28;81599;-63
2023/03/16 09:50:45;;;;;;;11.02;5.68;;;23.30;32.00;;;;;;6202185;28;81067;-66
2023/03/16 09:53:46;;;;;;;9.15;5.20;;;23.30;32.60;;;;;;6202054;28;82037;-67
2023/03/16 09:56:49;;;;;;;10.55;5.72;;;23.40;32.50;;;;;;6199198;28;81070;-66
2023/03/16 09:59:49;;;;;;;12.20;5.85;;;23.40;32.70;;;;;;6201765;28;80743;-65
2023/03/16 10:02:50;;;;;;;8.18;5.00;;;23.50;32.80;;;;;;6197738;28;80735;-65
2023/03/16 10:05:50;;;;;;;10.95;5.60;;;23.50;32.50;;;;;;6201848;28;80326;-65
2023/03/16 10:08:51;;;;;;;11.93;5.68;;;23.50;32.70;;;;;;6198797;28;82656;-61
2023/03/16 10:11:52;;;;;;;11.52;5.80;;;23.50;32.60;;;;;;6205012;28;80527;-60
2023/03/16 10:14:52;;;;;;;16.98;5.93;;;23.40;32.50;;;;;;6205688;28;85597;-62
2023/03/16 10:17:53;;;;;;;11.63;5.70;;;23.40;32.50;;;;;;6205165;28;80264;-61
2023/03/16 10:20:54;;;;;;;11.55;5.28;;;23.30;32.60;;;;;;6191821;28;82403;-62
2023/03/16 10:23:55;;;;;;;9.07;5.03;;;23.30;32.60;;;;;;6203381;28;81226;-61
2023/03/16 10:26:58;;;;;;;12.85;5.25;;;23.30;32.70;;;;;;6199926;28;80562;-61
2023/03/16 10:30:02;;;;;;;11.20;4.88;;;23.30;32.80;;;;;;6202080;28;82486;-62
2023/03/16 10:33:04;;;;;;;10.88;4.85;;;23.30;32.80;;;;;;6204146;28;80576;-62
2023/03/16 10:36:04;;;;;;;11.07;5.38;;;23.30;32.80;;;;;;6205489;28;82431;-63
2023/03/16 10:39:05;;;;;;;15.60;5.35;;;23.30;32.80;;;;;;6200429;28;80253;-61
2023/03/16 10:42:06;;;;;;;11.88;5.53;;;23.30;33.20;;;;;;6196457;28;80685;-60
2023/03/16 10:45:06;;;;;;;6.47;3.95;;;23.30;32.80;;;;;;6203213;28;82773;-63
2023/03/16 10:48:07;;;;;;;7.30;4.30;;;23.30;32.80;;;;;;6201603;28;82913;-62
2023/03/16 10:51:08;;;;;;;7.88;4.60;;;23.20;33.00;;;;;;6201837;28;81183;-64
2023/03/16 10:54:13;;;;;;;7.35;4.18;;;23.30;33.10;;;;;;6204895;28;81456;-61
2023/03/16 10:57:14;;;;;;;7.50;4.30;;;23.20;33.20;;;;;;6205203;28;80431;-64
2023/03/16 11:00:14;;;;;;;8.98;4.35;;;23.20;33.10;;;;;;6204841;28;80639;-65
2023/03/16 11:03:15;;;;;;;10.55;4.68;;;23.20;33.20;;;;;;6203620;28;83041;-60
2023/03/16 11:06:16;;;;;;;8.00;4.65;;;23.20;33.20;;;;;;6203323;28;80747;-59
2023/03/16 11:09:18;;;;;;;8.57;4.28;;;23.20;33.30;;;;;;6202749;28;80540;-60
2023/03/16 11:12:18;;;;;;;7.55;4.10;;;23.30;33.30;;;;;;6202094;28;82508;-59
2023/03/16 11:15:20;;;;;;;6.13;3.92;;;23.30;33.20;;;;;;6202529;28;80619;-60
2023/03/16 11:18:20;;;;;;;6.13;4.25;;;23.40;33.40;;;;;;6202914;28;80919;-60
2023/03/16 11:21:21;;;;;;;6.47;3.70;;;23.40;32.90;;;;;;6199664;28;81153;-59
2023/03/16 11:24:22;;;;;;;9.30;4.32;;;23.50;33.30;;;;;;6201921;28;80605;-60
2023/03/16 11:27:23;;;;;;;8.55;3.80;;;23.40;33.30;;;;;;6202301;28;80372;-59
2023/03/16 11:30:23;;;;;;;6.22;3.75;;;23.40;33.00;;;;;;6202930;28;80568;-60
2023/03/16 11:33:26;;;;;;;8.48;4.05;;;23.40;33.30;;;;;;6202288;28;80278;-65
2023/03/16 11:36:28;;;;;;;11.18;4.53;;;23.50;33.40;;;;;;6203143;28;80913;-60
2023/03/16 11:39:30;;;;;;;7.93;4.28;;;23.50;33.30;;;;;;6198633;28;80694;-60
2023/03/16 11:42:31;;;;;;;6.35;3.45;;;23.60;33.60;;;;;;6188985;28;83607;-60
2023/03/16 11:45:31;;;;;;;8.55;4.10;;;23.50;33.30;;;;;;6195735;28;81724;-59
2023/03/16 11:48:35;;;;;;;8.43;4.28;;;23.60;33.50;;;;;;6196949;28;81204;-59
2023/03/16 11:51:35;;;;;;;7.35;3.80;;;23.60;33.60;;;;;;6198439;28;80484;-59
2023/03/16 11:54:36;;;;;;;10.93;4.55;;;23.60;33.90;;;;;;6201611;28;82058;-58
2023/03/16 11:57:36;;;;;;;9.10;4.43;;;23.70;34.10;;;;;;6200621;28;81302;-61
2023/03/16 12:00:38;;;;;;;7.15;3.67;;;23.70;34.10;;;;;;6200284;28;81206;-65
2023/03/16 12:03:38;;;;;;;7.07;4.03;;;23.70;34.00;;;;;;6202443;28;81142;-63
2023/03/16 12:06:39;;;;;;;10.95;3.97;;;23.80;34.20;;;;;;6203759;28;83696;-64
2023/03/16 12:09:41;;;;;;;7.07;3.92;;;23.90;34.30;;;;;;6203485;28;80798;-66
2023/03/16 12:12:42;;;;;;;8.55;4.35;;;23.90;34.10;;;;;;6203304;28;81743;-65
2023/03/16 12:15:43;;;;;;;8.48;4.57;;;23.90;34.20;;;;;;6199988;28;81585;-64
2023/03/16 12:18:44;;;;;;;7.57;4.13;;;23.90;34.40;;;;;;6204000;28;80659;-65
2023/03/16 12:21:46;;;;;;;8.52;4.18;;;23.80;34.30;;;;;;6188984;28;80326;-67
2023/03/16 12:24:47;;;;;;;9.77;4.50;;;23.80;34.50;;;;;;6199476;28;82170;-68
2023/03/16 12:27:47;;;;;;;7.45;4.40;;;23.80;34.60;;;;;;6203112;28;81583;-70
2023/03/16 12:30:48;;;;;;;7.13;3.42;;;23.90;34.50;;;;;;6201521;28;80411;-68
2023/03/16 12:33:48;;;;;;;9.98;4.43;;;24.00;34.30;;;;;;6202796;28;80455;-67
2023/03/16 12:36:49;;;;;;;9.10;3.85;;;24.00;34.40;;;;;;6203127;28;80001;-69
2023/03/16 12:39:50;;;;;;;6.95;3.92;;;24.00;34.40;;;;;;6199037;28;81670;-67
2023/03/16 12:42:51;;;;;;;9.32;4.55;;;24.10;34.50;;;;;;6204890;28;80668;-68
2023/03/16 12:45:51;;;;;;;7.07;3.80;;;24.10;34.50;;;;;;6195844;28;80256;-67
2023/03/16 12:48:52;;;;;;;11.05;4.35;;;24.10;34.60;;;;;;6200891;28;80962;-67
2023/03/16 12:51:52;;;;;;;8.05;4.03;;;24.10;34.40;;;;;;6201511;28;80209;-68
2023/03/16 12:54:53;;;;;;;6.68;3.65;;;24.20;34.40;;;;;;6197181;28;80913;-59
2023/03/16 12:57:54;;;;;;;7.47;4.18;;;24.20;34.30;;;;;;6203904;28;82744;-59
2023/03/16 13:00:55;;;;;;;8.93;4.10;;;24.30;34.40;;;;;;6204177;28;80963;-59
2023/03/16 13:03:56;;;;;;;7.95;4.45;;;24.30;34.20;;;;;;6202978;28;80321;-59
2023/03/16 13:06:57;;;;;;;6.43;3.83;;;24.20;34.20;;;;;;6121958;28;88004;-62
2023/03/16 13:09:57;;;;;;;8.98;4.00;;;24.10;34.20;;;;;;6095294;28;80509;-61
2023/03/16 13:12:58;;;;;;;5.72;3.17;;;24.00;34.20;;;;;;6175581;28;80212;-65
2023/03/16 13:15:58;;;;;;;6.47;3.50;;;24.00;34.20;;;;;;6121076;28;82105;-68
2023/03/16 13:18:59;;;;;;;6.30;3.95;;;23.90;34.20;;;;;;6099532;28;82464;-76
2023/03/16 13:22:00;;;;;;;8.23;3.75;;;23.80;34.40;;;;;;6096624;28;83397;-68
2023/03/16 13:25:01;;;;;;;5.28;3.60;;;23.80;34.30;;;;;;6100884;28;80554;-69
2023/03/16 13:28:01;;;;;;;5.53;3.40;;;23.80;34.20;;;;;;6178505;28;81051;-68
2023/03/16 13:31:02;;;;;;;9.27;3.35;;;23.70;34.40;;;;;;6119719;28;80831;-60
2023/03/16 13:34:02;;;;;;;6.35;3.20;;;23.70;34.40;;;;;;6102972;28;81092;-60
2023/03/16 13:37:03;;;;;;;5.28;3.80;;;23.60;34.30;;;;;;6100741;28;80601;-60
2023/03/16 13:40:04;;;;;;;5.68;3.35;;;23.60;35.00;;;;;;6102419;28;81998;-60
2023/03/16 13:43:05;;;;;;;7.57;3.40;;;23.70;34.30;;;;;;6100540;28;80670;-60
2023/03/16 13:46:06;;;;;;;7.18;3.60;;;23.70;34.30;;;;;;6089429;28;81469;-60
2023/03/16 13:49:07;;;;;;;6.22;3.53;;;23.80;34.20;;;;;;6100515;28;80992;-71
2023/03/16 13:52:08;;;;;;;8.02;4.15;;;23.80;34.10;;;;;;6100722;28;80266;-72
2023/03/16 13:55:09;;;;;;;6.18;3.53;;;23.90;34.20;;;;;;6103855;28;82813;-70
2023/03/16 13:58:09;;;;;;;4.63;3.20;;;23.80;33.80;;;;;;6103535;28;81072;-70
2023/03/16 14:01:10;;;;;;;7.10;3.40;;;23.80;33.90;;;;;;6102045;28;80230;-67
2023/03/16 14:04:12;;;;;;;6.72;3.10;;;23.80;33.90;;;;;;6187865;28;81331;-67
2023/03/16 14:07:15;;;;;;;7.30;3.38;;;23.80;33.80;;;;;;6116898;28;81852;-63
2023/03/16 14:10:16;;;;;;;4.82;2.88;;;23.70;33.80;;;;;;6103303;28;83622;-63
2023/03/16 14:13:17;;;;;;;6.25;2.88;;;23.80;33.80;;;;;;6104196;28;83519;-64
2023/03/16 14:16:20;;;;;;;4.43;3.10;;;23.80;33.60;;;;;;6101783;28;80094;-62
2023/03/16 14:19:23;;;;;;;8.95;3.45;;;23.90;33.90;;;;;;6097580;28;81524;-61
2023/03/16 14:22:23;;;;;;;13.65;4.63;;;23.90;33.90;;;;;;6095818;28;80660;-65
2023/03/16 14:25:24;;;;;;;12.57;5.32;;;24.00;34.00;;;;;;6103241;28;80554;-68
2023/03/16 14:28:25;;;;;;;54.05;31.20;;;24.00;34.30;;;;;;6101108;28;82192;-65
2023/03/16 14:31:26;;;;;;;69.55;41.05;;;24.00;34.20;;;;;;6099622;28;84061;-67
2023/03/16 14:34:27;;;;;;;88.10;47.40;;;24.00;34.10;;;;;;6097356;28;83814;-64
2023/03/16 14:37:28;;;;;;;96.47;44.65;;;24.00;33.20;;;;;;6095280;28;83054;-64
2023/03/16 14:40:29;;;;;;;72.15;38.55;;;24.00;32.90;;;;;;6100471;28;83292;-66
2023/03/16 14:43:31;;;;;;;75.65;43.25;;;24.00;32.80;;;;;;6100587;28;82949;-67
2023/03/16 14:46:32;;;;;;;77.47;47.85;;;23.90;32.20;;;;;;6100658;28;83694;-67
2023/03/16 14:49:32;;;;;;;57.40;34.95;;;23.90;31.70;;;;;;6098420;28;83342;-69
2023/03/16 14:52:33;;;;;;;38.20;25.15;;;23.70;31.40;;;;;;6101617;28;82951;-70
2023/03/16 14:55:33;;;;;;;30.35;19.55;;;23.70;30.80;;;;;;6099665;28;83520;-68
2023/03/16 14:58:35;;;;;;;25.80;15.07;;;23.60;30.20;;;;;;6101414;28;84378;-70
2023/03/16 15:01:35;;;;;;;24.98;12.70;;;23.50;30.00;;;;;;6097443;28;83721;-69
2023/03/16 15:04:36;;;;;;;17.35;10.15;;;23.40;29.70;;;;;;6091752;28;84153;-65
2023/03/16 15:07:37;;;;;;;14.77;8.93;;;23.30;29.50;;;;;;6090875;28;87446;-66
2023/03/16 15:10:39;;;;;;;12.48;8.20;;;23.20;29.60;;;;;;6084401;28;82646;-67
2023/03/16 15:16:41;;;;;;;15.32;7.00;;;23.20;30.10;;;;;;6088840;28;80709;-66
2023/03/16 15:19:41;;;;;;;11.98;6.10;;;23.10;30.30;;;;;;6085594;28;82793;-64
2023/03/16 15:22:42;;;;;;;10.35;5.63;;;23.10;30.50;;;;;;6089342;27;82429;-64
2023/03/16 15:25:43;;;;;;;10.32;5.25;;;23.10;30.70;;;;;;6094643;28;80421;-65
2023/03/16 15:28:44;;;;;;;19.75;5.20;;;23.10;30.70;;;;;;6098047;28;80340;-69
2023/03/16 15:31:44;;;;;;;11.40;4.63;;;23.10;30.80;;;;;;6094810;28;82127;-67
2023/03/16 15:34:45;;;;;;;8.40;4.90;;;23.00;30.80;;;;;;6103234;28;85433;-64